This is the latest recevied weather packets stored in our database for station/object XE2MEM-21. If no packets are shown the sender has not sent any weather packets the latest 10 day(s).
| Time | Temp. | Humidity | Pressure | Rain* | Wind** | Luminosity | Snow |
|---|---|---|---|---|---|---|---|
| 1778106453 | 38.33° C | 55% | 1001.2 hPa | - | - | - | - |
| 1778105553 | 38.33° C | 54% | 1001.2 hPa | - | - | - | - |
| 1778104653 | 38.33° C | 54% | 1001.3 hPa | - | - | - | - |
| 1778103753 | 38.33° C | 54% | 1001.4 hPa | - | - | - | - |
| 1778102853 | 38.33° C | 55% | 1001.4 hPa | - | - | - | - |
| 1778101952 | 39.44° C | 51% | 1001.6 hPa | - | - | - | - |
| 1778101052 | 38.89° C | 52% | 1001.6 hPa | - | - | - | - |
| 1778100152 | 40° C | 50% | 1001.8 hPa | - | - | - | - |
| 1778099252 | 40.56° C | 49% | 1002 hPa | - | - | - | - |
| 1778098352 | 41.67° C | 47% | 1002.2 hPa | - | - | - | - |
| 1778097452 | 38.33° C | 56% | 1002.3 hPa | - | - | - | - |
| 1778096552 | 38.33° C | 56% | 1002.7 hPa | - | - | - | - |
| 1778095652 | 40° C | 54% | 1002.9 hPa | - | - | - | - |
| 1778094752 | 38.89° C | 56% | 1003.1 hPa | - | - | - | - |
| 1778093852 | 37.22° C | 65% | 1003.3 hPa | - | - | - | - |
| 1778092952 | 37.78° C | 62% | 1003.5 hPa | - | - | - | - |
| 1778092052 | 37.22° C | 68% | 1003.8 hPa | - | - | - | - |
| 1778091151 | 37.22° C | 66% | 1004 hPa | - | - | - | - |
| 1778090252 | 37.78° C | 68% | 1004.1 hPa | - | - | - | - |
| 1778089351 | 35.56° C | 77% | 1004.2 hPa | - | - | - | - |
| 1778088451 | 35° C | 89% | 1004.3 hPa | - | - | - | - |
| 1778087551 | 35° C | 91% | 1004.3 hPa | - | - | - | - |
| 1778086651 | 33.33° C | 100% | 1004.4 hPa | - | - | - | - |
| 1778085751 | 32.22° C | 100% | 1004.5 hPa | - | - | - | - |
| 1778084851 | 32.78° C | 100% | 1004.4 hPa | - | - | - | - |
* Rain since midnight (hover to see other rain measurements)
** Current wind speed in m/s (hover to see current wind gust speed)